Time;durP1;ratioP1;P1;durP2;ratioP2;P2;SDS_P1;SDS_P2;PMS_P1;PMS_P2;Temp;Humidity;BMP_temperature;BMP_pressure;BME280_temperature;BME280_humidity;BME280_pressure;Samples;Min_cycle;Max_cycle;Signal;HPM_P1;HPM_P2
2022/03/05 00:00:03;;;;;;;15.90;8.80;;;;;;;0.69;100.00;101092.28;15339952;19;20447;-49
2022/03/05 00:15:08;;;;;;;8.03;6.53;;;;;;;0.68;100.00;101085.28;15311780;19;20470;-49
2022/03/05 00:39:57;;;;;;;7.40;4.83;;;;;;;0.70;100.00;101078.25;15323636;19;20600;-49
2022/03/05 01:04:52;;;;;;;6.90;4.43;;;;;;;0.71;100.00;101085.25;15187634;19;2943222;-49
2022/03/05 01:09:56;;;;;;;6.93;4.70;;;;;;;0.67;100.00;101073.91;15352753;19;20171;-49
2022/03/05 01:49:42;;;;;;;7.27;5.03;;;;;;;0.49;100.00;101079.34;15187785;19;2943179;-49
2022/03/05 02:04:35;;;;;;;5.47;4.40;;;;;;;0.48;100.00;101077.63;15169819;19;2923977;-50
2022/03/05 02:19:31;;;;;;;6.73;4.57;;;;;;;0.42;100.00;101082.06;15187336;19;3076996;-49
2022/03/05 02:34:31;;;;;;;5.03;3.90;;;;;;;0.37;100.00;101074.22;15339447;19;20521;-51
2022/03/05 02:44:34;;;;;;;5.50;3.70;;;;;;;0.36;100.00;101068.09;15346433;19;20465;-50
2022/03/05 02:54:36;;;;;;;4.93;3.90;;;;;;;0.36;100.00;101075.97;15354943;19;20505;-49
2022/03/05 02:59:41;;;;;;;4.30;3.10;;;;;;;0.40;100.00;101075.97;15362991;19;20144;-50
2022/03/05 03:04:46;;;;;;;4.07;3.50;;;;;;;0.42;100.00;101088.19;15361922;19;20151;-49
2022/03/05 03:29:36;;;;;;;5.53;3.07;;;;;;;0.40;100.00;101079.44;15188038;19;2926887;-49
2022/03/05 03:34:41;;;;;;;3.60;3.17;;;;;;;0.35;100.00;101076.03;15344963;19;20147;-49
2022/03/05 03:39:46;;;;;;;3.50;2.97;;;;;;;0.37;100.00;101079.47;15331091;19;20140;-49
2022/03/05 03:49:44;;;;;;;4.07;3.33;;;;;;;0.31;100.00;101083.06;15185555;19;2926619;-49
2022/03/05 03:54:51;;;;;;;5.03;3.93;;;;;;;0.24;100.00;101083.97;15344251;19;20156;-49
2022/03/05 04:54:25;;;;;;;3.40;3.10;;;;;;;0.27;100.00;101107.59;15317732;19;20485;-49
2022/03/05 05:09:22;;;;;;;3.77;3.20;;;;;;;0.23;100.00;101113.78;15171995;19;2942509;-49
2022/03/05 05:14:26;;;;;;;2.93;2.67;;;;;;;0.21;100.00;101120.78;15312330;19;20752;-52
2022/03/05 05:19:31;;;;;;;3.37;2.50;;;;;;;0.22;100.00;101119.91;15340950;19;20168;-49
2022/03/05 05:44:24;;;;;;;3.70;2.67;;;;;;;0.36;100.00;101146.88;15188919;19;2929519;-49
2022/03/05 05:54:26;;;;;;;3.60;2.67;;;;;;;0.49;100.00;101149.38;15324399;19;20838;-50
2022/03/05 06:09:23;;;;;;;4.17;3.00;;;;;;;0.77;100.00;101158.72;15339501;19;20928;-51
2022/03/05 06:19:25;;;;;;;5.70;4.20;;;;;;;0.97;100.00;101172.50;15303795;19;20480;-50
2022/03/05 06:29:27;;;;;;;7.17;5.00;;;;;;;1.07;100.00;101186.41;15338110;19;21179;-50
2022/03/05 06:39:30;;;;;;;8.43;7.10;;;;;;;1.25;100.00;101194.06;15317330;19;20491;-52
2022/03/05 06:49:31;;;;;;;4.47;4.03;;;;;;;1.47;100.00;101202.56;15330485;19;20458;-50
2022/03/05 06:54:36;;;;;;;4.40;4.00;;;;;;;1.70;100.00;101203.13;15339759;19;20149;-50
2022/03/05 06:59:41;;;;;;;5.70;4.03;;;;;;;1.85;100.00;101204.66;15332813;19;20152;-51
2022/03/05 07:24:34;;;;;;;5.73;3.93;;;;;;;2.33;100.00;101213.56;15313360;19;20495;-50
2022/03/05 07:34:36;;;;;;;4.80;3.60;;;;;;;2.58;100.00;101221.06;15330564;19;20454;-51
2022/03/05 07:39:41;;;;;;;4.73;3.70;;;;;;;2.76;100.00;101232.19;15342256;19;20149;-50
2022/03/05 07:44:47;;;;;;;5.57;4.03;;;;;;;2.93;100.00;101221.31;15338454;19;20153;-50
2022/03/05 07:49:52;;;;;;;6.00;3.47;;;;;;;2.96;100.00;101225.66;15306035;19;20152;-50
2022/03/05 08:04:52;;;;;;;4.67;3.83;;;;;;;3.30;100.00;101223.25;15335202;19;20804;-50
2022/03/05 08:10:08;;;;;;;4.47;3.60;;;;;;;3.50;100.00;101236.91;15312972;19;20767;-50
2022/03/05 08:25:10;;;;;;;4.47;3.90;;;;;;;3.75;100.00;101239.88;15337479;19;20598;-51
2022/03/05 08:30:15;;;;;;;4.23;3.80;;;;;;;4.03;100.00;101243.66;15336914;19;20163;-51
2022/03/05 08:35:21;;;;;;;4.97;4.00;;;;;;;4.25;100.00;101233.47;15305550;19;20171;-50
2022/03/05 08:40:25;;;;;;;6.13;3.90;;;;;;;4.38;100.00;101250.75;15333336;19;20153;-50
2022/03/05 08:45:30;;;;;;;5.17;4.10;;;;;;;4.62;100.00;101244.88;15340186;19;21152;-51
2022/03/05 09:00:28;;;;;;;6.77;4.00;;;;;;;4.94;100.00;101256.44;15164880;19;2938189;-50
2022/03/05 09:05:33;;;;;;;7.40;4.50;;;;;;;5.13;100.00;101267.38;15342511;19;20165;-50
2022/03/05 09:15:37;;;;;;;4.90;3.50;;;;;;;5.08;100.00;101265.72;15326187;19;20574;-50
2022/03/05 09:20:46;;;;;;;4.07;3.30;;;;;;;5.13;100.00;101268.25;15303441;19;20164;-51
2022/03/05 09:25:50;;;;;;;3.30;2.77;;;;;;;4.93;98.34;101273.19;15336420;19;20264;-50
2022/03/05 09:45:47;;;;;;;5.07;3.47;;;;;;;4.72;96.24;101274.59;15319572;19;20547;-48
2022/03/05 09:55:51;;;;;;;2.43;2.23;;;;;;;4.63;89.68;101267.75;15334007;19;20489;-49
2022/03/05 10:01:16;;;;;;;2.53;2.10;;;;;;;4.44;88.59;101282.34;15322125;19;20637;-48
2022/03/05 10:11:16;;;;;;;5.03;3.73;;;;;;;3.97;97.69;101291.34;15184566;19;2928141;-49
2022/03/05 10:16:34;;;;;;;4.50;3.37;;;;;;;3.58;100.00;101290.41;15342567;19;20872;-49
2022/03/05 10:26:56;;;;;;;2.93;2.70;;;;;;;3.07;100.00;101306.31;15299171;19;21115;-48
2022/03/05 10:56:42;;;;;;;2.50;2.30;;;;;;;4.41;100.00;101314.13;15156836;19;3384674;-49
2022/03/05 11:01:46;;;;;;;3.00;2.70;;;;;;;4.56;100.00;101312.91;15337125;19;20223;-49
2022/03/05 11:11:50;;;;;;;8.07;6.00;;;;;;;5.55;97.07;101297.09;15300071;19;20513;-49
2022/03/05 11:16:59;;;;;;;3.30;2.43;;;;;;;6.20;85.27;101296.97;15327713;19;20523;-49
2022/03/05 11:22:05;;;;;;;2.00;1.90;;;;;;;6.75;80.63;101296.97;15337492;19;20136;-48
2022/03/05 11:27:15;;;;;;;2.27;2.07;;;;;;;7.01;76.52;101292.56;15331835;19;20175;-48
2022/03/05 11:32:21;;;;;;;2.13;1.93;;;;;;;7.39;73.50;101289.44;15308498;19;20472;-49
2022/03/05 11:37:29;;;;;;;1.87;1.77;;;;;;;7.56;70.58;101284.41;15322101;19;20147;-50
2022/03/05 11:42:35;;;;;;;2.30;2.10;;;;;;;7.10;67.00;101281.66;15339211;19;20172;-49
2022/03/05 11:47:40;;;;;;;3.43;2.00;;;;;;;6.35;65.44;101292.06;15333989;19;20221;-49
2022/03/05 11:57:41;;;;;;;2.50;2.30;;;;;;;5.33;63.95;101279.16;15148688;19;2932197;-50
2022/03/05 12:02:51;;;;;;;10.83;5.03;;;;;;;5.27;63.74;101276.69;15334165;19;20167;-48
2022/03/05 12:07:56;;;;;;;5.27;3.90;;;;;;;5.53;63.05;101280.38;15336345;19;20159;-49
2022/03/05 12:13:03;;;;;;;3.50;3.20;;;;;;;6.12;63.98;101274.22;15336013;19;20483;-51
2022/03/05 12:18:09;;;;;;;2.70;2.20;;;;;;;5.72;62.30;101278.94;15304846;19;20134;-49
2022/03/05 12:23:19;;;;;;;3.20;2.20;;;;;;;5.73;62.63;101270.94;15322274;19;20154;-48
2022/03/05 12:33:21;;;;;;;1.83;1.73;;;;;;;6.32;62.01;101272.72;15334188;19;20520;-49
2022/03/05 12:48:18;;;;;;;2.47;2.20;;;;;;;5.37;60.55;101262.28;15181985;19;2943643;-48
2022/03/05 12:58:23;;;;;;;2.10;1.90;;;;;;;5.88;60.06;101248.50;15331371;19;20510;-49
2022/03/05 13:03:31;;;;;;;1.83;1.70;;;;;;;5.85;60.71;101253.84;15304976;19;20816;-48
2022/03/05 13:08:41;;;;;;;1.90;1.80;;;;;;;5.44;59.85;101253.25;15332590;19;20154;-50
2022/03/05 13:18:41;;;;;;;2.00;1.90;;;;;;;5.47;59.13;101251.44;15183040;19;2939027;-49
2022/03/05 13:28:44;;;;;;;3.57;2.60;;;;;;;5.39;60.90;101241.94;15310218;19;20514;-48
2022/03/05 13:33:51;;;;;;;2.20;2.00;;;;;;;5.03;63.69;101245.59;15337929;19;20136;-49
2022/03/05 13:43:53;;;;;;;2.13;1.93;;;;;;;4.85;62.22;101241.63;15325905;19;20504;-48
2022/03/05 13:54:00;;;;;;;2.73;2.00;;;;;;;4.62;68.13;101259.88;15329341;19;21194;-48
2022/03/05 13:59:04;;;;;;;2.43;2.00;;;;;;;4.45;65.78;101249.72;15335484;19;20191;-47
2022/03/05 14:19:02;;;;;;;3.67;2.43;;;;;;;3.66;73.82;101264.72;15329204;19;20493;-48
2022/03/05 14:34:03;;;;;;;3.10;2.80;;;;;;;3.43;78.32;101266.94;15301427;19;20865;-48
2022/03/05 14:39:07;;;;;;;3.90;2.60;;;;;;;3.36;77.18;101266.22;15331347;19;20167;-48
2022/03/05 14:44:12;;;;;;;6.47;4.20;;;;;;;3.21;83.88;101266.50;15334333;19;20722;-49
2022/03/05 14:49:17;;;;;;;3.20;2.57;;;;;;;3.16;81.53;101269.22;15327892;19;20163;-52
2022/03/05 15:14:14;;;;;;;3.47;3.07;;;;;;;2.65;91.50;101273.66;15296738;19;20503;-49
2022/03/05 15:44:08;;;;;;;4.40;3.53;;;;;;;2.28;100.00;101289.16;15328138;19;20616;-48
2022/03/05 15:49:13;;;;;;;5.40;3.87;;;;;;;2.26;100.00;101288.31;15343944;19;20212;-49
2022/03/05 15:54:17;;;;;;;6.77;4.90;;;;;;;2.22;100.00;101285.75;15344217;19;21436;-48
2022/03/05 16:04:17;;;;;;;4.80;3.73;;;;;;;1.96;100.00;101291.38;15158541;19;2948387;-50
2022/03/05 16:14:16;;;;;;;4.00;3.37;;;;;;;1.72;100.00;101290.78;15180185;19;2995039;-49
2022/03/05 16:19:21;;;;;;;5.27;4.27;;;;;;;1.62;100.00;101290.94;15342517;19;20147;-51
2022/03/05 16:29:23;;;;;;;5.77;4.23;;;;;;;1.45;100.00;101291.13;15320452;19;20464;-49
2022/03/05 16:44:17;;;;;;;19.90;11.67;;;;;;;1.11;100.00;101300.25;15166622;19;2930211;-50
2022/03/05 17:19:27;;;;;;;16.23;8.63;;;;;;;0.71;100.00;101317.28;15171791;19;3067629;-50
2022/03/05 17:24:32;;;;;;;15.17;8.83;;;;;;;0.69;100.00;101318.16;15337383;19;20716;-50
2022/03/05 17:29:37;;;;;;;18.60;9.67;;;;;;;0.68;100.00;101313.78;15320423;19;20563;-49
2022/03/05 17:39:36;;;;;;;15.68;9.15;;;;;;;0.54;100.00;101318.28;15182237;19;2926157;-50
2022/03/05 17:44:40;;;;;;;9.20;6.10;;;;;;;0.49;100.00;101312.19;15338701;19;20152;-50
2022/03/05 17:49:45;;;;;;;8.30;5.27;;;;;;;0.47;100.00;101316.59;15335117;19;20212;-50
2022/03/05 18:44:14;;;;;;;16.23;9.80;;;;;;;0.48;100.00;101328.84;15332841;19;20489;-52
2022/03/05 18:49:19;;;;;;;11.37;7.00;;;;;;;0.47;100.00;101327.09;15343239;19;20140;-51
2022/03/05 19:38:52;;;;;;;15.77;8.50;;;;;;;0.75;100.00;101339.13;15191994;19;2947254;-50
2022/03/05 20:18:44;;;;;;;6.20;4.90;;;;;;;0.70;100.00;101346.19;15331589;19;20948;-50
2022/03/05 20:53:28;;;;;;;8.10;5.70;;;;;;;0.46;100.00;101343.72;15308831;19;20542;-50
2022/03/05 21:03:27;;;;;;;10.97;6.77;;;;;;;0.32;100.00;101338.56;15179839;19;3005231;-51
2022/03/05 21:08:32;;;;;;;10.00;6.07;;;;;;;0.29;100.00;101339.44;15344960;19;20175;-52
2022/03/05 22:08:19;;;;;;;8.53;5.73;;;;;;;0.33;100.00;101341.19;15338668;19;20504;-51
2022/03/05 22:13:24;;;;;;;6.33;5.27;;;;;;;0.38;100.00;101342.88;15346112;19;20704;-52
2022/03/05 22:28:24;;;;;;;7.23;4.40;;;;;;;0.46;100.00;101333.22;15337120;19;21371;-52
2022/03/05 22:48:19;;;;;;;5.60;4.10;;;;;;;0.59;100.00;101329.63;15168174;19;3079963;-52
2022/03/05 23:28:04;;;;;;;13.03;8.30;;;;;;;0.61;100.00;101335.72;15320392;19;20469;-51
2022/03/05 23:38:02;;;;;;;12.80;7.10;;;;;;;0.59;100.00;101327.00;15190423;19;2924666;-52
2022/03/05 23:48:04;;;;;;;5.80;5.20;;;;;;;0.58;100.00;101330.50;15332927;19;20813;-52
